sensor_id;sensor_type;location;lat;lon;timestamp;P1;durP1;ratioP1;P2;durP2;ratioP2
65936;SDS011;52707;52.086;5.418;2023-10-08T00:01:42;26.27;;;6.40;;
65936;SDS011;52707;52.086;5.418;2023-10-08T00:04:10;26.20;;;6.43;;
65936;SDS011;52707;52.086;5.418;2023-10-08T00:06:45;30.95;;;5.75;;
65936;SDS011;52707;52.086;5.418;2023-10-08T00:09:15;25.88;;;6.47;;
65936;SDS011;52707;52.086;5.418;2023-10-08T00:11:42;32.10;;;7.60;;
65936;SDS011;52707;52.086;5.418;2023-10-08T00:14:09;27.40;;;5.78;;
65936;SDS011;52707;52.086;5.418;2023-10-08T00:16:37;34.35;;;6.18;;
65936;SDS011;52707;52.086;5.418;2023-10-08T00:19:06;31.30;;;7.37;;
65936;SDS011;52707;52.086;5.418;2023-10-08T00:21:44;25.55;;;6.32;;
65936;SDS011;52707;52.086;5.418;2023-10-08T00:24:11;27.85;;;6.75;;
65936;SDS011;52707;52.086;5.418;2023-10-08T00:26:41;30.77;;;6.73;;
65936;SDS011;52707;52.086;5.418;2023-10-08T00:29:08;37.28;;;6.85;;
65936;SDS011;52707;52.086;5.418;2023-10-08T00:31:47;31.98;;;6.50;;
65936;SDS011;52707;52.086;5.418;2023-10-08T00:34:16;26.20;;;5.65;;
65936;SDS011;52707;52.086;5.418;2023-10-08T00:36:45;32.42;;;7.22;;
65936;SDS011;52707;52.086;5.418;2023-10-08T00:39:12;28.98;;;7.10;;
65936;SDS011;52707;52.086;5.418;2023-10-08T00:41:48;29.33;;;6.72;;
65936;SDS011;52707;52.086;5.418;2023-10-08T00:44:16;26.13;;;6.45;;
65936;SDS011;52707;52.086;5.418;2023-10-08T00:46:49;34.22;;;5.65;;
65936;SDS011;52707;52.086;5.418;2023-10-08T00:49:16;30.77;;;6.65;;
65936;SDS011;52707;52.086;5.418;2023-10-08T00:51:54;27.77;;;6.40;;
65936;SDS011;52707;52.086;5.418;2023-10-08T00:54:26;26.75;;;6.88;;
65936;SDS011;52707;52.086;5.418;2023-10-08T00:56:54;28.70;;;6.18;;
65936;SDS011;52707;52.086;5.418;2023-10-08T00:59:24;30.20;;;7.57;;
65936;SDS011;52707;52.086;5.418;2023-10-08T01:01:52;32.55;;;7.15;;
65936;SDS011;52707;52.086;5.418;2023-10-08T01:04:20;26.90;;;6.85;;
65936;SDS011;52707;52.086;5.418;2023-10-08T01:06:53;33.58;;;7.03;;
65936;SDS011;52707;52.086;5.418;2023-10-08T01:09:22;28.05;;;6.03;;
65936;SDS011;52707;52.086;5.418;2023-10-08T01:12:08;27.75;;;6.72;;
65936;SDS011;52707;52.086;5.418;2023-10-08T01:14:35;32.30;;;7.18;;
65936;SDS011;52707;52.086;5.418;2023-10-08T01:17:09;32.70;;;7.82;;
65936;SDS011;52707;52.086;5.418;2023-10-08T01:19:38;26.73;;;6.60;;
65936;SDS011;52707;52.086;5.418;2023-10-08T01:22:06;28.17;;;6.63;;
65936;SDS011;52707;52.086;5.418;2023-10-08T01:24:43;27.42;;;6.93;;
65936;SDS011;52707;52.086;5.418;2023-10-08T01:27:09;32.53;;;6.55;;
65936;SDS011;52707;52.086;5.418;2023-10-08T01:29:38;29.98;;;7.32;;
65936;SDS011;52707;52.086;5.418;2023-10-08T01:32:05;26.90;;;6.65;;
65936;SDS011;52707;52.086;5.418;2023-10-08T01:34:39;31.23;;;6.63;;
65936;SDS011;52707;52.086;5.418;2023-10-08T01:37:05;25.83;;;6.70;;
65936;SDS011;52707;52.086;5.418;2023-10-08T01:39:36;32.08;;;6.35;;
65936;SDS011;52707;52.086;5.418;2023-10-08T01:42:02;23.55;;;6.45;;
65936;SDS011;52707;52.086;5.418;2023-10-08T01:44:30;31.20;;;7.82;;
65936;SDS011;52707;52.086;5.418;2023-10-08T01:46:59;28.00;;;6.95;;
65936;SDS011;52707;52.086;5.418;2023-10-08T01:49:25;24.85;;;7.22;;
65936;SDS011;52707;52.086;5.418;2023-10-08T01:51:58;32.38;;;6.70;;
65936;SDS011;52707;52.086;5.418;2023-10-08T01:54:24;26.77;;;6.82;;
65936;SDS011;52707;52.086;5.418;2023-10-08T01:56:52;29.45;;;7.50;;
65936;SDS011;52707;52.086;5.418;2023-10-08T01:59:19;31.45;;;7.82;;
65936;SDS011;52707;52.086;5.418;2023-10-08T02:01:45;30.55;;;6.90;;
65936;SDS011;52707;52.086;5.418;2023-10-08T02:04:12;26.70;;;6.13;;
65936;SDS011;52707;52.086;5.418;2023-10-08T02:06:39;29.50;;;7.28;;
65936;SDS011;52707;52.086;5.418;2023-10-08T02:09:06;27.40;;;7.20;;
65936;SDS011;52707;52.086;5.418;2023-10-08T02:11:44;28.23;;;7.00;;
65936;SDS011;52707;52.086;5.418;2023-10-08T02:14:10;25.63;;;6.30;;
65936;SDS011;52707;52.086;5.418;2023-10-08T02:16:38;19.35;;;5.68;;
65936;SDS011;52707;52.086;5.418;2023-10-08T02:19:05;26.77;;;5.97;;
65936;SDS011;52707;52.086;5.418;2023-10-08T02:21:32;20.63;;;6.05;;
65936;SDS011;52707;52.086;5.418;2023-10-08T02:23:59;28.83;;;6.30;;
65936;SDS011;52707;52.086;5.418;2023-10-08T02:26:26;27.25;;;6.22;;
65936;SDS011;52707;52.086;5.418;2023-10-08T02:28:52;30.48;;;6.97;;
65936;SDS011;52707;52.086;5.418;2023-10-08T02:31:20;25.05;;;6.38;;
65936;SDS011;52707;52.086;5.418;2023-10-08T02:33:46;34.00;;;7.28;;
65936;SDS011;52707;52.086;5.418;2023-10-08T02:36:13;31.40;;;7.38;;
65936;SDS011;52707;52.086;5.418;2023-10-08T02:38:40;28.38;;;6.68;;
65936;SDS011;52707;52.086;5.418;2023-10-08T02:41:06;35.92;;;6.85;;
65936;SDS011;52707;52.086;5.418;2023-10-08T02:43:33;34.20;;;6.75;;
65936;SDS011;52707;52.086;5.418;2023-10-08T02:46:02;26.92;;;6.53;;
65936;SDS011;52707;52.086;5.418;2023-10-08T02:48:33;27.60;;;7.15;;
65936;SDS011;52707;52.086;5.418;2023-10-08T02:51:01;31.05;;;6.95;;
65936;SDS011;52707;52.086;5.418;2023-10-08T02:53:40;36.35;;;7.45;;
65936;SDS011;52707;52.086;5.418;2023-10-08T02:56:10;28.88;;;6.95;;
65936;SDS011;52707;52.086;5.418;2023-10-08T02:58:40;32.17;;;6.47;;
65936;SDS011;52707;52.086;5.418;2023-10-08T03:01:07;26.48;;;6.70;;
65936;SDS011;52707;52.086;5.418;2023-10-08T03:03:35;36.45;;;6.70;;
65936;SDS011;52707;52.086;5.418;2023-10-08T03:06:03;28.60;;;6.47;;
65936;SDS011;52707;52.086;5.418;2023-10-08T03:08:29;28.30;;;6.80;;
65936;SDS011;52707;52.086;5.418;2023-10-08T03:10:57;36.85;;;7.75;;
65936;SDS011;52707;52.086;5.418;2023-10-08T03:13:29;26.30;;;6.70;;
65936;SDS011;52707;52.086;5.418;2023-10-08T03:15:55;32.92;;;7.35;;
65936;SDS011;52707;52.086;5.418;2023-10-08T03:18:28;37.05;;;6.88;;
65936;SDS011;52707;52.086;5.418;2023-10-08T03:21:04;38.17;;;7.85;;
65936;SDS011;52707;52.086;5.418;2023-10-08T03:23:32;28.63;;;7.38;;
65936;SDS011;52707;52.086;5.418;2023-10-08T03:28:43;31.40;;;6.47;;
65936;SDS011;52707;52.086;5.418;2023-10-08T03:31:10;30.60;;;6.93;;
65936;SDS011;52707;52.086;5.418;2023-10-08T03:33:44;28.45;;;7.07;;
65936;SDS011;52707;52.086;5.418;2023-10-08T03:36:15;33.75;;;7.55;;
65936;SDS011;52707;52.086;5.418;2023-10-08T03:38:47;35.80;;;7.85;;
65936;SDS011;52707;52.086;5.418;2023-10-08T03:43:44;22.17;;;5.80;;
65936;SDS011;52707;52.086;5.418;2023-10-08T03:46:24;30.48;;;6.78;;
65936;SDS011;52707;52.086;5.418;2023-10-08T03:48:52;25.17;;;6.10;;
65936;SDS011;52707;52.086;5.418;2023-10-08T03:51:18;30.13;;;6.93;;
65936;SDS011;52707;52.086;5.418;2023-10-08T03:53:48;34.65;;;7.25;;
65936;SDS011;52707;52.086;5.418;2023-10-08T03:56:25;31.25;;;6.20;;
65936;SDS011;52707;52.086;5.418;2023-10-08T03:58:56;28.13;;;6.03;;
65936;SDS011;52707;52.086;5.418;2023-10-08T04:01:26;22.73;;;5.90;;
65936;SDS011;52707;52.086;5.418;2023-10-08T04:03:58;30.27;;;6.95;;
65936;SDS011;52707;52.086;5.418;2023-10-08T04:06:26;27.20;;;6.15;;
65936;SDS011;52707;52.086;5.418;2023-10-08T04:09:01;27.40;;;5.65;;
65936;SDS011;52707;52.086;5.418;2023-10-08T04:11:50;25.02;;;6.40;;
65936;SDS011;52707;52.086;5.418;2023-10-08T04:14:20;19.92;;;6.35;;
65936;SDS011;52707;52.086;5.418;2023-10-08T04:16:47;27.83;;;7.27;;
65936;SDS011;52707;52.086;5.418;2023-10-08T04:19:20;21.80;;;5.78;;
65936;SDS011;52707;52.086;5.418;2023-10-08T04:21:47;39.03;;;8.55;;
65936;SDS011;52707;52.086;5.418;2023-10-08T04:24:23;24.98;;;7.03;;
65936;SDS011;52707;52.086;5.418;2023-10-08T04:26:55;26.95;;;6.68;;
65936;SDS011;52707;52.086;5.418;2023-10-08T04:29:25;28.55;;;7.05;;
65936;SDS011;52707;52.086;5.418;2023-10-08T04:31:52;26.73;;;7.30;;
65936;SDS011;52707;52.086;5.418;2023-10-08T04:34:34;38.03;;;7.40;;
65936;SDS011;52707;52.086;5.418;2023-10-08T04:37:00;34.40;;;8.52;;
65936;SDS011;52707;52.086;5.418;2023-10-08T04:39:40;36.65;;;7.85;;
65936;SDS011;52707;52.086;5.418;2023-10-08T04:42:13;27.45;;;6.32;;
65936;SDS011;52707;52.086;5.418;2023-10-08T04:44:52;28.73;;;6.28;;
65936;SDS011;52707;52.086;5.418;2023-10-08T04:47:18;32.75;;;6.47;;
65936;SDS011;52707;52.086;5.418;2023-10-08T04:49:58;38.10;;;6.57;;
65936;SDS011;52707;52.086;5.418;2023-10-08T04:52:25;26.20;;;5.78;;
65936;SDS011;52707;52.086;5.418;2023-10-08T04:54:54;31.90;;;5.82;;
65936;SDS011;52707;52.086;5.418;2023-10-08T04:57:21;24.30;;;5.55;;
65936;SDS011;52707;52.086;5.418;2023-10-08T04:59:52;24.17;;;5.28;;
65936;SDS011;52707;52.086;5.418;2023-10-08T05:02:20;28.25;;;5.75;;
65936;SDS011;52707;52.086;5.418;2023-10-08T05:07:35;23.08;;;5.38;;
65936;SDS011;52707;52.086;5.418;2023-10-08T05:10:11;32.78;;;5.78;;
65936;SDS011;52707;52.086;5.418;2023-10-08T05:12:50;26.38;;;5.28;;
65936;SDS011;52707;52.086;5.418;2023-10-08T05:15:32;25.45;;;5.82;;
65936;SDS011;52707;52.086;5.418;2023-10-08T05:18:24;23.73;;;5.30;;
65936;SDS011;52707;52.086;5.418;2023-10-08T05:21:04;29.70;;;5.80;;
65936;SDS011;52707;52.086;5.418;2023-10-08T05:23:50;26.58;;;5.88;;
65936;SDS011;52707;52.086;5.418;2023-10-08T05:26:35;26.70;;;5.30;;
65936;SDS011;52707;52.086;5.418;2023-10-08T05:29:08;24.27;;;5.90;;
65936;SDS011;52707;52.086;5.418;2023-10-08T05:31:53;32.78;;;6.20;;
65936;SDS011;52707;52.086;5.418;2023-10-08T05:34:40;30.35;;;5.85;;
65936;SDS011;52707;52.086;5.418;2023-10-08T05:37:17;34.72;;;6.78;;
65936;SDS011;52707;52.086;5.418;2023-10-08T05:40:03;24.27;;;6.10;;
65936;SDS011;52707;52.086;5.418;2023-10-08T05:42:38;24.13;;;5.22;;
65936;SDS011;52707;52.086;5.418;2023-10-08T05:45:12;34.05;;;7.15;;
65936;SDS011;52707;52.086;5.418;2023-10-08T05:47:39;15.75;;;5.03;;
65936;SDS011;52707;52.086;5.418;2023-10-08T05:50:07;22.05;;;4.68;;
65936;SDS011;52707;52.086;5.418;2023-10-08T05:52:43;15.75;;;4.18;;
65936;SDS011;52707;52.086;5.418;2023-10-08T05:55:25;21.58;;;5.20;;
65936;SDS011;52707;52.086;5.418;2023-10-08T05:57:53;17.35;;;4.10;;
65936;SDS011;52707;52.086;5.418;2023-10-08T06:00:29;18.83;;;4.05;;
65936;SDS011;52707;52.086;5.418;2023-10-08T06:03:01;14.57;;;3.90;;
65936;SDS011;52707;52.086;5.418;2023-10-08T06:05:36;14.55;;;3.88;;
65936;SDS011;52707;52.086;5.418;2023-10-08T06:08:09;12.18;;;3.45;;
65936;SDS011;52707;52.086;5.418;2023-10-08T06:10:41;8.85;;;3.15;;
65936;SDS011;52707;52.086;5.418;2023-10-08T06:13:21;12.05;;;2.45;;
65936;SDS011;52707;52.086;5.418;2023-10-08T06:16:09;8.25;;;2.45;;
65936;SDS011;52707;52.086;5.418;2023-10-08T06:18:39;10.23;;;3.13;;
65936;SDS011;52707;52.086;5.418;2023-10-08T06:21:06;6.15;;;2.42;;
65936;SDS011;52707;52.086;5.418;2023-10-08T06:23:39;8.73;;;2.20;;
65936;SDS011;52707;52.086;5.418;2023-10-08T06:26:05;15.43;;;2.22;;
65936;SDS011;52707;52.086;5.418;2023-10-08T06:28:41;14.88;;;2.47;;
65936;SDS011;52707;52.086;5.418;2023-10-08T06:31:08;11.60;;;2.40;;
65936;SDS011;52707;52.086;5.418;2023-10-08T06:33:39;7.50;;;2.28;;
65936;SDS011;52707;52.086;5.418;2023-10-08T06:36:07;7.85;;;1.98;;
65936;SDS011;52707;52.086;5.418;2023-10-08T06:38:43;9.43;;;2.60;;
65936;SDS011;52707;52.086;5.418;2023-10-08T06:41:11;6.72;;;2.47;;
65936;SDS011;52707;52.086;5.418;2023-10-08T06:44:00;13.43;;;2.83;;
65936;SDS011;52707;52.086;5.418;2023-10-08T06:46:30;9.20;;;2.50;;
65936;SDS011;52707;52.086;5.418;2023-10-08T06:49:02;7.32;;;2.33;;
65936;SDS011;52707;52.086;5.418;2023-10-08T06:51:34;10.85;;;2.88;;
65936;SDS011;52707;52.086;5.418;2023-10-08T06:54:01;8.45;;;2.13;;
65936;SDS011;52707;52.086;5.418;2023-10-08T06:56:30;12.98;;;2.75;;
65936;SDS011;52707;52.086;5.418;2023-10-08T06:58:57;8.95;;;2.40;;
65936;SDS011;52707;52.086;5.418;2023-10-08T07:01:25;17.38;;;2.63;;
65936;SDS011;52707;52.086;5.418;2023-10-08T07:03:52;10.32;;;2.50;;
65936;SDS011;52707;52.086;5.418;2023-10-08T07:06:23;4.00;;;2.13;;
65936;SDS011;52707;52.086;5.418;2023-10-08T07:08:52;7.22;;;2.40;;
65936;SDS011;52707;52.086;5.418;2023-10-08T07:11:22;7.47;;;2.63;;
65936;SDS011;52707;52.086;5.418;2023-10-08T07:13:48;10.85;;;2.45;;
65936;SDS011;52707;52.086;5.418;2023-10-08T07:16:17;9.35;;;2.72;;
65936;SDS011;52707;52.086;5.418;2023-10-08T07:18:44;6.35;;;2.78;;
65936;SDS011;52707;52.086;5.418;2023-10-08T07:21:18;8.32;;;2.72;;
65936;SDS011;52707;52.086;5.418;2023-10-08T07:23:50;9.63;;;2.75;;
65936;SDS011;52707;52.086;5.418;2023-10-08T07:26:24;6.18;;;2.53;;
65936;SDS011;52707;52.086;5.418;2023-10-08T07:28:51;10.13;;;2.97;;
65936;SDS011;52707;52.086;5.418;2023-10-08T07:31:21;11.50;;;2.80;;
65936;SDS011;52707;52.086;5.418;2023-10-08T07:33:51;5.93;;;2.75;;
65936;SDS011;52707;52.086;5.418;2023-10-08T07:36:25;6.82;;;2.67;;
65936;SDS011;52707;52.086;5.418;2023-10-08T07:38:53;5.70;;;2.70;;
65936;SDS011;52707;52.086;5.418;2023-10-08T07:41:20;7.85;;;2.58;;
65936;SDS011;52707;52.086;5.418;2023-10-08T07:43:47;4.95;;;2.65;;
65936;SDS011;52707;52.086;5.418;2023-10-08T07:46:22;8.85;;;2.55;;
65936;SDS011;52707;52.086;5.418;2023-10-08T07:48:49;9.85;;;2.90;;
65936;SDS011;52707;52.086;5.418;2023-10-08T07:51:16;3.42;;;2.15;;
65936;SDS011;52707;52.086;5.418;2023-10-08T07:53:48;7.72;;;2.72;;
65936;SDS011;52707;52.086;5.418;2023-10-08T07:56:15;3.35;;;2.58;;
65936;SDS011;52707;52.086;5.418;2023-10-08T07:58:41;4.57;;;2.55;;
65936;SDS011;52707;52.086;5.418;2023-10-08T08:01:08;5.20;;;2.40;;
65936;SDS011;52707;52.086;5.418;2023-10-08T08:03:35;5.15;;;2.67;;
65936;SDS011;52707;52.086;5.418;2023-10-08T08:06:03;3.88;;;2.63;;
65936;SDS011;52707;52.086;5.418;2023-10-08T08:08:32;4.18;;;2.60;;
65936;SDS011;52707;52.086;5.418;2023-10-08T08:11:00;7.47;;;2.75;;
65936;SDS011;52707;52.086;5.418;2023-10-08T08:13:32;6.80;;;2.58;;
65936;SDS011;52707;52.086;5.418;2023-10-08T08:16:00;2.58;;;2.22;;
65936;SDS011;52707;52.086;5.418;2023-10-08T08:18:36;3.30;;;2.58;;
65936;SDS011;52707;52.086;5.418;2023-10-08T08:21:03;3.10;;;2.60;;
65936;SDS011;52707;52.086;5.418;2023-10-08T08:23:29;13.45;;;3.17;;
65936;SDS011;52707;52.086;5.418;2023-10-08T08:25:56;2.97;;;2.40;;
65936;SDS011;52707;52.086;5.418;2023-10-08T08:28:39;8.52;;;2.75;;
65936;SDS011;52707;52.086;5.418;2023-10-08T08:31:05;5.18;;;2.38;;
65936;SDS011;52707;52.086;5.418;2023-10-08T08:33:40;4.47;;;2.33;;
65936;SDS011;52707;52.086;5.418;2023-10-08T08:36:27;5.85;;;2.50;;
65936;SDS011;52707;52.086;5.418;2023-10-08T08:38:53;3.92;;;2.13;;
65936;SDS011;52707;52.086;5.418;2023-10-08T08:41:20;5.35;;;2.20;;
65936;SDS011;52707;52.086;5.418;2023-10-08T08:43:48;8.93;;;2.42;;
65936;SDS011;52707;52.086;5.418;2023-10-08T08:46:14;5.78;;;2.40;;
65936;SDS011;52707;52.086;5.418;2023-10-08T08:48:42;4.38;;;2.17;;
65936;SDS011;52707;52.086;5.418;2023-10-08T08:51:08;3.42;;;2.40;;
65936;SDS011;52707;52.086;5.418;2023-10-08T08:53:36;5.53;;;2.40;;
65936;SDS011;52707;52.086;5.418;2023-10-08T08:56:02;5.90;;;2.20;;
65936;SDS011;52707;52.086;5.418;2023-10-08T08:58:35;2.93;;;2.10;;
65936;SDS011;52707;52.086;5.418;2023-10-08T09:03:29;3.17;;;2.28;;
65936;SDS011;52707;52.086;5.418;2023-10-08T09:05:58;7.45;;;2.10;;
65936;SDS011;52707;52.086;5.418;2023-10-08T09:08:28;1.80;;;1.70;;
65936;SDS011;52707;52.086;5.418;2023-10-08T09:10:59;2.67;;;1.90;;
65936;SDS011;52707;52.086;5.418;2023-10-08T09:13:27;5.38;;;1.75;;
65936;SDS011;52707;52.086;5.418;2023-10-08T09:16:13;2.83;;;2.00;;
65936;SDS011;52707;52.086;5.418;2023-10-08T09:18:43;2.17;;;1.63;;
65936;SDS011;52707;52.086;5.418;2023-10-08T09:21:15;5.20;;;1.80;;
65936;SDS011;52707;52.086;5.418;2023-10-08T09:23:42;3.13;;;1.58;;
65936;SDS011;52707;52.086;5.418;2023-10-08T09:26:14;3.78;;;1.75;;
65936;SDS011;52707;52.086;5.418;2023-10-08T09:28:44;1.58;;;1.48;;
65936;SDS011;52707;52.086;5.418;2023-10-08T09:31:13;5.32;;;1.77;;
65936;SDS011;52707;52.086;5.418;2023-10-08T09:33:40;3.88;;;2.10;;
65936;SDS011;52707;52.086;5.418;2023-10-08T09:36:08;3.40;;;2.20;;
65936;SDS011;52707;52.086;5.418;2023-10-08T09:38:37;3.93;;;2.20;;
65936;SDS011;52707;52.086;5.418;2023-10-08T09:41:03;2.22;;;2.00;;
65936;SDS011;52707;52.086;5.418;2023-10-08T09:43:30;2.45;;;2.15;;
65936;SDS011;52707;52.086;5.418;2023-10-08T09:46:00;6.00;;;2.42;;
65936;SDS011;52707;52.086;5.418;2023-10-08T09:48:31;3.13;;;2.42;;
65936;SDS011;52707;52.086;5.418;2023-10-08T09:51:00;3.13;;;2.83;;
65936;SDS011;52707;52.086;5.418;2023-10-08T09:53:32;2.95;;;2.42;;
65936;SDS011;52707;52.086;5.418;2023-10-08T09:56:01;3.65;;;2.38;;
65936;SDS011;52707;52.086;5.418;2023-10-08T09:58:33;4.10;;;2.53;;
65936;SDS011;52707;52.086;5.418;2023-10-08T10:00:59;3.78;;;2.80;;
65936;SDS011;52707;52.086;5.418;2023-10-08T10:03:26;5.88;;;2.92;;
65936;SDS011;52707;52.086;5.418;2023-10-08T10:05:53;3.25;;;2.40;;
65936;SDS011;52707;52.086;5.418;2023-10-08T10:08:25;6.07;;;2.80;;
65936;SDS011;52707;52.086;5.418;2023-10-08T10:10:59;5.28;;;2.80;;
65936;SDS011;52707;52.086;5.418;2023-10-08T10:13:29;3.83;;;3.00;;
65936;SDS011;52707;52.086;5.418;2023-10-08T10:15:59;7.80;;;2.90;;
65936;SDS011;52707;52.086;5.418;2023-10-08T10:20:57;5.25;;;3.45;;
65936;SDS011;52707;52.086;5.418;2023-10-08T10:23:40;7.28;;;3.20;;
65936;SDS011;52707;52.086;5.418;2023-10-08T10:31:41;6.03;;;3.50;;
65936;SDS011;52707;52.086;5.418;2023-10-08T10:34:14;3.97;;;2.92;;
65936;SDS011;52707;52.086;5.418;2023-10-08T10:36:43;8.43;;;3.55;;
65936;SDS011;52707;52.086;5.418;2023-10-08T10:39:15;6.75;;;4.28;;
65936;SDS011;52707;52.086;5.418;2023-10-08T10:41:53;5.72;;;4.10;;
65936;SDS011;52707;52.086;5.418;2023-10-08T10:44:24;9.25;;;4.05;;
65936;SDS011;52707;52.086;5.418;2023-10-08T10:46:51;5.40;;;4.18;;
65936;SDS011;52707;52.086;5.418;2023-10-08T10:49:20;9.43;;;4.43;;
65936;SDS011;52707;52.086;5.418;2023-10-08T10:51:58;6.40;;;4.00;;
65936;SDS011;52707;52.086;5.418;2023-10-08T10:54:25;4.97;;;4.43;;
65936;SDS011;52707;52.086;5.418;2023-10-08T10:56:53;4.88;;;4.07;;
65936;SDS011;52707;52.086;5.418;2023-10-08T10:59:35;6.13;;;3.85;;
65936;SDS011;52707;52.086;5.418;2023-10-08T11:02:09;9.27;;;4.32;;
65936;SDS011;52707;52.086;5.418;2023-10-08T11:04:47;7.28;;;4.10;;
65936;SDS011;52707;52.086;5.418;2023-10-08T11:07:15;4.78;;;4.05;;
65936;SDS011;52707;52.086;5.418;2023-10-08T11:09:42;7.85;;;4.63;;
65936;SDS011;52707;52.086;5.418;2023-10-08T11:12:12;5.35;;;4.53;;
65936;SDS011;52707;52.086;5.418;2023-10-08T11:14:42;6.68;;;4.30;;
65936;SDS011;52707;52.086;5.418;2023-10-08T11:17:12;11.52;;;4.22;;
65936;SDS011;52707;52.086;5.418;2023-10-08T11:19:44;5.47;;;4.38;;
65936;SDS011;52707;52.086;5.418;2023-10-08T11:22:12;6.60;;;4.18;;
65936;SDS011;52707;52.086;5.418;2023-10-08T11:24:49;9.52;;;3.78;;
65936;SDS011;52707;52.086;5.418;2023-10-08T11:27:20;3.88;;;3.47;;
65936;SDS011;52707;52.086;5.418;2023-10-08T11:30:05;4.72;;;3.72;;
65936;SDS011;52707;52.086;5.418;2023-10-08T11:32:38;7.70;;;3.75;;
65936;SDS011;52707;52.086;5.418;2023-10-08T11:35:05;9.40;;;3.25;;
65936;SDS011;52707;52.086;5.418;2023-10-08T11:37:45;8.00;;;3.40;;
65936;SDS011;52707;52.086;5.418;2023-10-08T11:40:24;5.65;;;3.22;;
65936;SDS011;52707;52.086;5.418;2023-10-08T11:43:14;6.20;;;2.67;;
65936;SDS011;52707;52.086;5.418;2023-10-08T11:45:42;7.82;;;3.35;;
65936;SDS011;52707;52.086;5.418;2023-10-08T11:48:14;7.68;;;2.55;;
65936;SDS011;52707;52.086;5.418;2023-10-08T11:50:44;6.30;;;2.85;;
65936;SDS011;52707;52.086;5.418;2023-10-08T11:53:10;4.40;;;2.78;;
65936;SDS011;52707;52.086;5.418;2023-10-08T11:55:37;10.43;;;2.92;;
65936;SDS011;52707;52.086;5.418;2023-10-08T11:58:05;5.35;;;2.40;;
65936;SDS011;52707;52.086;5.418;2023-10-08T12:00:37;7.15;;;2.53;;
65936;SDS011;52707;52.086;5.418;2023-10-08T12:03:14;5.70;;;2.25;;
65936;SDS011;52707;52.086;5.418;2023-10-08T12:05:46;6.60;;;2.08;;
65936;SDS011;52707;52.086;5.418;2023-10-08T12:08:18;7.55;;;2.50;;
65936;SDS011;52707;52.086;5.418;2023-10-08T12:10:47;6.32;;;2.03;;
65936;SDS011;52707;52.086;5.418;2023-10-08T12:13:15;4.32;;;2.20;;
65936;SDS011;52707;52.086;5.418;2023-10-08T12:15:45;9.68;;;2.40;;
65936;SDS011;52707;52.086;5.418;2023-10-08T12:18:13;5.95;;;2.10;;
65936;SDS011;52707;52.086;5.418;2023-10-08T12:20:51;4.75;;;2.63;;
65936;SDS011;52707;52.086;5.418;2023-10-08T12:23:18;5.78;;;2.28;;
65936;SDS011;52707;52.086;5.418;2023-10-08T12:25:54;12.63;;;2.55;;
65936;SDS011;52707;52.086;5.418;2023-10-08T12:28:26;5.32;;;2.15;;
65936;SDS011;52707;52.086;5.418;2023-10-08T12:30:53;5.22;;;1.63;;
65936;SDS011;52707;52.086;5.418;2023-10-08T12:33:20;5.10;;;1.98;;
65936;SDS011;52707;52.086;5.418;2023-10-08T12:35:48;5.60;;;1.85;;
65936;SDS011;52707;52.086;5.418;2023-10-08T12:38:15;4.10;;;1.70;;
65936;SDS011;52707;52.086;5.418;2023-10-08T12:40:41;7.03;;;2.35;;
65936;SDS011;52707;52.086;5.418;2023-10-08T12:43:14;5.45;;;1.70;;
65936;SDS011;52707;52.086;5.418;2023-10-08T12:45:46;6.35;;;1.67;;
65936;SDS011;52707;52.086;5.418;2023-10-08T12:48:21;7.15;;;1.52;;
65936;SDS011;52707;52.086;5.418;2023-10-08T12:50:48;5.60;;;1.52;;
65936;SDS011;52707;52.086;5.418;2023-10-08T12:53:24;6.13;;;1.75;;
65936;SDS011;52707;52.086;5.418;2023-10-08T12:56:00;4.03;;;1.67;;
65936;SDS011;52707;52.086;5.418;2023-10-08T12:58:35;6.22;;;1.63;;
65936;SDS011;52707;52.086;5.418;2023-10-08T13:01:08;2.88;;;1.38;;
65936;SDS011;52707;52.086;5.418;2023-10-08T13:03:36;5.05;;;1.70;;
65936;SDS011;52707;52.086;5.418;2023-10-08T13:06:08;5.55;;;1.90;;
65936;SDS011;52707;52.086;5.418;2023-10-08T13:08:37;3.23;;;1.70;;
65936;SDS011;52707;52.086;5.418;2023-10-08T13:11:04;7.25;;;2.03;;
65936;SDS011;52707;52.086;5.418;2023-10-08T13:13:31;5.60;;;1.80;;
65936;SDS011;52707;52.086;5.418;2023-10-08T13:15:58;6.18;;;1.92;;
65936;SDS011;52707;52.086;5.418;2023-10-08T13:18:29;3.83;;;1.67;;
65936;SDS011;52707;52.086;5.418;2023-10-08T13:20:56;7.63;;;2.05;;
65936;SDS011;52707;52.086;5.418;2023-10-08T13:23:24;2.85;;;1.70;;
65936;SDS011;52707;52.086;5.418;2023-10-08T13:25:50;6.90;;;2.13;;
65936;SDS011;52707;52.086;5.418;2023-10-08T13:28:25;6.88;;;1.83;;
65936;SDS011;52707;52.086;5.418;2023-10-08T13:30:54;6.43;;;2.28;;
65936;SDS011;52707;52.086;5.418;2023-10-08T13:33:21;3.25;;;1.90;;
65936;SDS011;52707;52.086;5.418;2023-10-08T13:35:51;4.32;;;2.13;;
65936;SDS011;52707;52.086;5.418;2023-10-08T13:38:36;8.20;;;2.05;;
65936;SDS011;52707;52.086;5.418;2023-10-08T13:41:03;5.57;;;2.13;;
65936;SDS011;52707;52.086;5.418;2023-10-08T13:43:32;6.75;;;2.10;;
65936;SDS011;52707;52.086;5.418;2023-10-08T13:46:05;4.95;;;1.90;;
65936;SDS011;52707;52.086;5.418;2023-10-08T13:48:34;6.13;;;2.33;;
65936;SDS011;52707;52.086;5.418;2023-10-08T13:51:02;4.40;;;1.85;;
65936;SDS011;52707;52.086;5.418;2023-10-08T13:53:30;8.30;;;2.15;;
65936;SDS011;52707;52.086;5.418;2023-10-08T13:55:57;6.43;;;2.05;;
65936;SDS011;52707;52.086;5.418;2023-10-08T13:58:27;7.13;;;2.00;;
65936;SDS011;52707;52.086;5.418;2023-10-08T14:00:54;3.88;;;2.00;;
65936;SDS011;52707;52.086;5.418;2023-10-08T14:03:21;5.28;;;1.92;;
65936;SDS011;52707;52.086;5.418;2023-10-08T14:05:48;5.30;;;1.70;;
65936;SDS011;52707;52.086;5.418;2023-10-08T14:08:19;4.53;;;2.10;;
65936;SDS011;52707;52.086;5.418;2023-10-08T14:10:46;3.47;;;1.97;;
65936;SDS011;52707;52.086;5.418;2023-10-08T14:13:15;3.83;;;2.20;;
65936;SDS011;52707;52.086;5.418;2023-10-08T14:15:46;6.32;;;2.42;;
65936;SDS011;52707;52.086;5.418;2023-10-08T14:18:14;4.85;;;2.30;;
65936;SDS011;52707;52.086;5.418;2023-10-08T14:20:44;4.97;;;2.33;;
65936;SDS011;52707;52.086;5.418;2023-10-08T14:23:13;4.00;;;1.92;;
65936;SDS011;52707;52.086;5.418;2023-10-08T14:25:43;4.22;;;2.30;;
65936;SDS011;52707;52.086;5.418;2023-10-08T14:28:11;5.28;;;2.25;;
65936;SDS011;52707;52.086;5.418;2023-10-08T14:30:48;5.40;;;2.30;;
65936;SDS011;52707;52.086;5.418;2023-10-08T14:33:19;4.45;;;2.58;;
65936;SDS011;52707;52.086;5.418;2023-10-08T14:35:51;8.85;;;2.60;;
65936;SDS011;52707;52.086;5.418;2023-10-08T14:38:36;4.32;;;2.25;;
65936;SDS011;52707;52.086;5.418;2023-10-08T14:41:20;3.78;;;2.25;;
65936;SDS011;52707;52.086;5.418;2023-10-08T14:44:05;6.68;;;2.35;;
65936;SDS011;52707;52.086;5.418;2023-10-08T14:46:32;3.38;;;2.40;;
65936;SDS011;52707;52.086;5.418;2023-10-08T14:49:00;9.55;;;2.67;;
65936;SDS011;52707;52.086;5.418;2023-10-08T14:51:28;5.53;;;2.47;;
65936;SDS011;52707;52.086;5.418;2023-10-08T14:53:56;6.10;;;3.03;;
65936;SDS011;52707;52.086;5.418;2023-10-08T14:56:22;8.07;;;2.80;;
65936;SDS011;52707;52.086;5.418;2023-10-08T14:58:49;7.00;;;3.13;;
65936;SDS011;52707;52.086;5.418;2023-10-08T15:01:16;5.88;;;3.00;;
65936;SDS011;52707;52.086;5.418;2023-10-08T15:03:42;7.75;;;3.55;;
65936;SDS011;52707;52.086;5.418;2023-10-08T15:06:09;10.55;;;3.42;;
65936;SDS011;52707;52.086;5.418;2023-10-08T15:08:37;6.57;;;3.40;;
65936;SDS011;52707;52.086;5.418;2023-10-08T15:11:03;4.97;;;3.08;;
65936;SDS011;52707;52.086;5.418;2023-10-08T15:13:32;5.00;;;3.20;;
65936;SDS011;52707;52.086;5.418;2023-10-08T15:15:59;8.18;;;3.17;;
65936;SDS011;52707;52.086;5.418;2023-10-08T15:18:30;9.35;;;3.85;;
65936;SDS011;52707;52.086;5.418;2023-10-08T15:20:59;6.60;;;3.65;;